This is the latest recevied weather packets stored in our database for station/object EA4IAJ-12. If no packets are shown the sender has not sent any weather packets the latest 10 day(s).
| Time | Temp. | Humidity | Pressure | Rain* | Wind** | Luminosity | Snow |
|---|---|---|---|---|---|---|---|
| 1777539622 | 22.78° C | 100% | 1042.1 hPa | - | - | - | - |
| 1777538721 | 20° C | 100% | 1030.5 hPa | - | - | - | - |
| 1777537821 | 22.22° C | 100% | 1039 hPa | - | - | - | - |
| 1777536920 | 20° C | 100% | 1030.7 hPa | - | - | - | - |
| 1777536019 | 17.22° C | 100% | 1018.6 hPa | - | - | - | - |
| 1777535119 | 17.78° C | 100% | 1021 hPa | - | - | - | - |
| 1777534218 | 16.67° C | 100% | 1017.3 hPa | - | - | - | - |
| 1777533318 | 15.56° C | 100% | 1012.1 hPa | - | - | - | - |
| 1777532418 | 15° C | 100% | 1008.6 hPa | - | - | - | - |
| 1777531516 | 14.44° C | 100% | 1006.5 hPa | - | - | - | - |
| 1777530616 | 13.33° C | 100% | 1003.3 hPa | - | - | - | - |
| 1777529715 | 12.78° C | 100% | 1000.7 hPa | - | - | - | - |
| 1777528815 | 12.78° C | 100% | 998.7 hPa | - | - | - | - |
| 1777527914 | 11.67° C | 100% | 996 hPa | - | - | - | - |
| 1777527014 | 11.67° C | 100% | 994.9 hPa | - | - | - | - |
| 1777526113 | 11.11° C | 100% | 993.2 hPa | - | - | - | - |
| 1777525213 | 11.11° C | 100% | 991.6 hPa | - | - | - | - |
| 1777524313 | 11.11° C | 100% | 991.2 hPa | - | - | - | - |
| 1777523412 | 11.11° C | 100% | 991.8 hPa | - | - | - | - |
| 1777522511 | 11.67° C | 100% | 992.6 hPa | - | - | - | - |
| 1777521612 | 11.67° C | 100% | 992.3 hPa | - | - | - | - |
| 1777520723 | 11.67° C | 100% | 992.9 hPa | - | - | - | - |
| 1777519822 | 11.67° C | 100% | 993.4 hPa | - | - | - | - |
| 1777518922 | 12.22° C | 100% | 994.2 hPa | - | - | - | - |
| 1777518021 | 12.22° C | 100% | 995.4 hPa | - | - | - | - |
* Rain since midnight (hover to see other rain measurements)
** Current wind speed in m/s (hover to see current wind gust speed)